Time;durP1;ratioP1;P1;durP2;ratioP2;P2;SDS_P1;SDS_P2;PMS_P1;PMS_P2;Temp;Humidity;BMP_temperature;BMP_pressure;BME280_temperature;BME280_humidity;BME280_pressure;Samples;Min_cycle;Max_cycle;Signal;HPM_P1;HPM_P2
2023/06/02 00:00:00;;;;;;;19.77;3.80;;;;;;;12.29;76.27;102259.84;5038870;28;20033;-71
2023/06/02 00:02:29;;;;;;;14.75;3.70;;;;;;;12.18;76.67;102251.09;5041476;28;20117;-72
2023/06/02 00:04:59;;;;;;;15.95;3.85;;;;;;;12.20;76.56;102246.28;5039136;28;20036;-72
2023/06/02 00:07:29;;;;;;;16.75;3.55;;;;;;;12.14;76.46;102255.22;5041993;28;20025;-72
2023/06/02 00:09:58;;;;;;;12.05;3.60;;;;;;;12.14;77.04;102249.72;5043518;28;20037;-72
2023/06/02 00:12:25;;;;;;;17.52;3.60;;;;;;;12.08;77.18;102240.28;5037515;28;20436;-72
2023/06/02 00:14:50;;;;;;;17.30;4.07;;;;;;;12.08;77.53;102236.69;5037572;28;20040;-72
2023/06/02 00:17:18;;;;;;;21.23;4.00;;;;;;;12.15;77.28;102238.56;5038389;28;20038;-71
2023/06/02 00:19:45;;;;;;;21.73;3.55;;;;;;;12.15;77.72;102234.94;5039190;28;20025;-72
2023/06/02 00:22:17;;;;;;;25.08;3.63;;;;;;;12.05;78.20;102234.25;5041344;28;20033;-72
2023/06/02 00:24:43;;;;;;;18.98;3.65;;;;;;;12.07;77.77;102237.72;5037575;28;20142;-72
2023/06/02 00:27:10;;;;;;;21.97;3.93;;;;;;;12.12;77.78;102233.41;5045563;28;20112;-72
2023/06/02 00:29:35;;;;;;;24.00;3.92;;;;;;;12.12;77.82;102240.81;5039386;28;20034;-72
2023/06/02 00:32:01;;;;;;;11.83;2.77;;;;;;;12.17;77.70;102230.16;5039285;28;20550;-73
2023/06/02 00:34:27;;;;;;;13.37;3.63;;;;;;;12.13;77.97;102229.66;5039440;28;20489;-72
2023/06/02 00:36:52;;;;;;;22.30;3.73;;;;;;;12.11;77.97;102228.09;5039570;28;20448;-72
2023/06/02 00:39:18;;;;;;;17.53;3.63;;;;;;;12.13;77.81;102234.28;5044337;28;20020;-72
2023/06/02 00:41:45;;;;;;;30.20;4.10;;;;;;;12.10;78.32;102232.72;5037208;28;20029;-72
2023/06/02 00:44:11;;;;;;;21.30;4.35;;;;;;;12.15;78.74;102238.56;5038903;28;20020;-71
2023/06/02 00:46:36;;;;;;;14.83;4.20;;;;;;;12.17;78.52;102232.91;5034462;28;20406;-72
2023/06/02 00:49:02;;;;;;;21.43;4.03;;;;;;;12.25;78.33;102231.00;5039932;28;20025;-72
2023/06/02 00:51:28;;;;;;;;;;;;;;;12.21;78.53;102240.59;5000052;28;1155035;-72
2023/06/02 00:53:53;;;;;;;20.80;3.42;;;;;;;12.11;78.15;102234.44;5047598;28;19962;-73
2023/06/02 00:56:22;;;;;;;25.63;4.83;;;;;;;12.13;78.15;102239.75;5036082;28;20034;-72
2023/06/02 00:58:49;;;;;;;18.67;4.10;;;;;;;12.06;78.59;102242.34;5017185;28;20025;-72
2023/06/02 01:01:18;;;;;;;23.00;4.35;;;;;;;12.05;78.25;102234.25;5040904;28;20144;-72
2023/06/02 01:03:45;;;;;;;24.92;3.90;;;;;;;12.11;78.54;102230.84;5042242;28;20515;-72
2023/06/02 01:06:12;;;;;;;19.85;4.82;;;;;;;12.05;78.15;102235.13;5039236;28;20040;-72
2023/06/02 01:08:39;;;;;;;20.73;3.67;;;;;;;11.98;78.39;102233.25;5040146;28;20096;-72
2023/06/02 01:11:06;;;;;;;;;;;;;;;12.05;77.79;102239.75;5037983;28;20039;-72
2023/06/02 01:13:31;;;;;;;15.43;3.42;;;;;;;11.94;77.29;102237.34;5333931;23;19930;-73
2023/06/02 01:15:57;;;;;;;20.07;4.30;;;;;;;11.88;77.60;102244.41;5012613;28;20595;-72
2023/06/02 01:18:25;;;;;;;30.60;4.43;;;;;;;11.93;77.47;102232.91;5027570;28;20393;-73
2023/06/02 01:20:57;;;;;;;23.08;4.95;;;;;;;11.91;77.53;102249.53;5019479;28;20048;-73
2023/06/02 01:23:33;;;;;;;20.20;4.30;;;;;;;11.84;77.22;102237.53;5017442;28;20060;-73
2023/06/02 01:26:00;;;;;;;20.67;4.13;;;;;;;11.85;77.05;102241.16;5021074;28;20056;-71
2023/06/02 01:28:26;;;;;;;23.38;4.40;;;;;;;11.87;76.90;102239.97;5018755;28;20056;-71
2023/06/02 01:31:11;;;;;;;20.17;3.67;;;;;;;11.84;77.11;102242.19;5020360;28;20107;-73
2023/06/02 01:33:55;;;;;;;21.52;3.80;;;;;;;11.81;76.57;102245.28;5022010;28;20042;-72
2023/06/02 01:36:23;;;;;;;19.10;3.72;;;;;;;11.81;77.24;102245.28;5020945;28;20034;-71
2023/06/02 01:38:50;;;;;;;19.67;3.83;;;;;;;11.80;77.10;102243.56;5024436;28;20096;-72
2023/06/02 01:41:18;;;;;;;16.55;4.03;;;;;;;11.74;76.87;102247.00;5018066;28;20113;-72
2023/06/02 01:43:46;;;;;;;14.63;4.03;;;;;;;11.75;76.91;102251.44;5019938;28;20021;-72
2023/06/02 01:46:13;;;;;;;20.40;3.97;;;;;;;11.73;76.92;102242.50;5022692;28;20055;-72
2023/06/02 01:48:40;;;;;;;16.30;3.90;;;;;;;11.75;77.05;102243.22;5019540;28;20030;-72
2023/06/02 01:51:06;;;;;;;17.65;3.90;;;;;;;11.80;76.44;102240.81;5018852;28;20038;-71
2023/06/02 01:53:32;;;;;;;21.57;3.73;;;;;;;11.78;76.24;102240.09;5023283;28;20032;-71
2023/06/02 01:55:58;;;;;;;22.17;4.68;;;;;;;11.74;76.77;102236.00;5022689;28;20125;-71
2023/06/02 01:58:24;;;;;;;25.00;4.73;;;;;;;11.71;75.99;102241.81;5020267;28;20057;-72
2023/06/02 02:00:50;;;;;;;16.60;4.77;;;;;;;11.75;76.76;102240.47;5019194;28;20025;-72
2023/06/02 02:03:15;;;;;;;15.47;3.80;;;;;;;11.71;76.59;102239.94;5014602;28;20392;-71
2023/06/02 02:05:41;;;;;;;21.37;4.43;;;;;;;11.75;76.18;102249.53;5021843;28;20448;-71
2023/06/02 02:08:06;;;;;;;21.00;4.38;;;;;;;11.70;76.55;102251.09;5020141;28;20033;-71
2023/06/02 02:10:31;;;;;;;19.33;4.25;;;;;;;11.64;76.83;102246.28;5018030;28;20026;-71
2023/06/02 02:12:57;;;;;;;20.70;4.10;;;;;;;11.63;77.26;102244.59;5017548;28;20037;-71
2023/06/02 02:15:22;;;;;;;30.60;4.87;;;;;;;11.56;77.31;102244.34;5019554;28;20026;-72
2023/06/02 02:17:49;;;;;;;21.87;4.07;;;;;;;11.63;77.38;102250.06;5023085;28;20531;-72
2023/06/02 02:20:18;;;;;;;17.73;4.63;;;;;;;11.58;77.59;102246.94;5017891;28;20461;-72
2023/06/02 02:22:45;;;;;;;17.90;4.28;;;;;;;11.61;77.42;102246.63;5019539;28;20030;-72
2023/06/02 02:25:11;;;;;;;;;;;;;;;11.58;77.52;102255.19;5023282;28;20512;-72
2023/06/02 02:27:36;;;;;;;20.73;3.95;;;;;;;11.44;78.14;102258.56;5018662;28;19995;-72
2023/06/02 02:30:03;;;;;;;21.60;5.20;;;;;;;11.46;78.01;102257.38;5021950;28;20098;-72
2023/06/02 02:32:30;;;;;;;19.90;4.43;;;;;;;11.38;77.98;102248.28;5019451;28;20033;-72
2023/06/02 02:34:56;;;;;;;13.55;3.50;;;;;;;11.41;78.03;102250.66;5022492;28;20481;-72
2023/06/02 02:37:22;;;;;;;19.67;4.13;;;;;;;11.52;77.75;102251.22;5020502;28;20029;-72
2023/06/02 02:39:47;;;;;;;13.88;3.70;;;;;;;11.45;77.72;102233.72;5018580;28;20500;-72
2023/06/02 02:42:13;;;;;;;26.47;3.50;;;;;;;11.42;78.42;102242.28;5013350;28;20025;-72
2023/06/02 02:44:38;;;;;;;20.33;4.83;;;;;;;11.38;78.40;102237.28;5019214;28;20037;-72
2023/06/02 02:47:04;;;;;;;19.47;3.97;;;;;;;11.36;78.43;102245.69;5023927;28;20036;-71
2023/06/02 02:49:30;;;;;;;12.30;3.88;;;;;;;11.40;78.54;102237.97;5020969;28;20026;-71
2023/06/02 02:51:56;;;;;;;16.42;3.78;;;;;;;11.37;78.45;102239.16;5016581;28;20034;-73
2023/06/02 02:54:23;;;;;;;18.77;3.87;;;;;;;11.47;78.60;102239.03;5020928;28;20103;-72
2023/06/02 02:56:48;;;;;;;22.33;4.47;;;;;;;11.32;78.16;102240.72;5017844;28;20484;-71
2023/06/02 02:59:15;;;;;;;19.23;4.17;;;;;;;11.34;77.52;102244.13;5017677;28;20041;-72
2023/06/02 03:01:43;;;;;;;;;;;;;;;11.24;77.97;102241.56;5016261;28;20547;-74
2023/06/02 03:04:10;;;;;;;12.05;3.00;;;;;;;11.30;78.04;102242.75;5018262;28;19913;-74
2023/06/02 03:06:40;;;;;;;11.88;3.10;;;;;;;11.37;77.96;102238.34;5016623;28;20037;-74
2023/06/02 03:09:09;;;;;;;12.88;2.83;;;;;;;11.27;77.47;102232.97;5023148;28;20379;-75
2023/06/02 03:11:35;;;;;;;12.35;2.80;;;;;;;11.38;77.34;102238.13;5019515;28;20030;-74
2023/06/02 03:14:00;;;;;;;14.77;3.40;;;;;;;11.30;77.39;102231.78;5017278;28;20053;-74
2023/06/02 03:16:28;;;;;;;11.70;3.13;;;;;;;11.29;77.71;102238.28;5018416;28;20081;-74
2023/06/02 03:18:53;;;;;;;20.10;3.33;;;;;;;11.38;77.95;102234.56;5021860;28;20104;-74
2023/06/02 03:21:19;;;;;;;15.40;3.57;;;;;;;11.31;77.59;102237.09;5016077;28;20130;-74
2023/06/02 03:23:45;;;;;;;22.67;3.50;;;;;;;11.32;77.88;102227.00;5020458;28;20117;-74
2023/06/02 03:26:11;;;;;;;16.17;2.97;;;;;;;11.31;77.84;102225.28;5020396;28;20033;-74
2023/06/02 03:28:37;;;;;;;20.25;3.20;;;;;;;11.41;77.47;102243.31;5014788;28;20030;-75
2023/06/02 03:31:03;;;;;;;20.90;3.80;;;;;;;11.37;77.63;102230.94;5024513;28;20061;-74
2023/06/02 03:33:28;;;;;;;14.67;3.20;;;;;;;11.24;78.27;102232.44;5021145;28;20120;-74
2023/06/02 03:35:54;;;;;;;11.37;3.40;;;;;;;11.33;77.98;102231.47;5020702;28;20546;-74
2023/06/02 03:38:20;;;;;;;16.40;2.72;;;;;;;11.32;78.20;102227.84;5024462;28;20376;-74
2023/06/02 03:40:45;;;;;;;23.40;4.53;;;;;;;11.29;78.51;102238.28;5020241;28;20034;-74
2023/06/02 03:43:10;;;;;;;16.23;2.80;;;;;;;11.27;77.91;102230.22;5020504;28;20096;-74
2023/06/02 03:45:36;;;;;;;21.30;4.00;;;;;;;11.16;78.70;102235.19;5020364;28;20052;-74
2023/06/02 03:48:02;;;;;;;16.60;3.60;;;;;;;11.23;78.76;102242.59;5020587;28;20484;-74
2023/06/02 03:50:27;;;;;;;14.63;3.30;;;;;;;11.25;78.43;102235.03;5004046;28;20037;-75
2023/06/02 03:52:53;;;;;;;12.77;3.10;;;;;;;11.27;78.56;102234.88;5026381;28;20542;-74
2023/06/02 03:55:18;;;;;;;11.35;2.90;;;;;;;11.25;78.35;102239.66;5020409;28;20064;-74
2023/06/02 03:57:45;;;;;;;20.53;3.63;;;;;;;11.27;78.66;102234.88;5018476;28;20061;-74
2023/06/02 04:00:11;;;;;;;13.52;2.92;;;;;;;11.23;78.62;102234.34;5020311;28;20040;-74
2023/06/02 04:02:37;;;;;;;15.80;3.10;;;;;;;11.16;78.88;102236.03;5020683;28;20431;-74
2023/06/02 04:05:03;;;;;;;20.73;3.65;;;;;;;11.23;78.66;102250.81;5021563;28;20022;-74
2023/06/02 04:07:28;;;;;;;17.17;3.20;;;;;;;11.24;79.21;102244.28;5021284;28;20068;-74
2023/06/02 04:09:54;;;;;;;11.93;3.53;;;;;;;11.33;78.98;102245.16;5024599;28;20362;-74
2023/06/02 04:12:20;;;;;;;13.63;2.92;;;;;;;11.33;78.06;102242.44;5019672;28;20065;-74
2023/06/02 04:14:45;;;;;;;12.60;2.95;;;;;;;11.36;78.57;102251.19;5017068;28;20429;-74
2023/06/02 04:17:11;;;;;;;16.07;2.73;;;;;;;11.22;78.05;102240.84;5018065;28;20032;-74
2023/06/02 04:19:37;;;;;;;12.87;2.80;;;;;;;11.30;78.20;102242.75;5021725;28;20108;-74
2023/06/02 04:22:03;;;;;;;19.42;3.65;;;;;;;11.30;78.73;102238.13;5024127;28;20030;-75
2023/06/02 04:24:29;;;;;;;15.07;3.15;;;;;;;11.33;78.42;102243.31;5020962;28;20037;-75
2023/06/02 04:26:55;;;;;;;19.48;4.35;;;;;;;11.31;78.27;102241.75;5021713;28;20026;-75
2023/06/02 04:29:20;;;;;;;17.00;3.67;;;;;;;11.37;77.46;102243.81;5021308;28;20549;-74
2023/06/02 04:31:50;;;;;;;18.03;3.77;;;;;;;11.43;77.66;102248.63;5023382;28;20475;-75
2023/06/02 04:34:15;;;;;;;19.88;3.55;;;;;;;11.43;77.57;102248.63;5021409;28;20037;-74
2023/06/02 04:36:42;;;;;;;15.53;3.40;;;;;;;11.38;78.05;102248.28;5019908;28;20493;-73
2023/06/02 04:39:08;;;;;;;;;;;;;;;11.42;77.85;102253.25;5017535;28;20029;-75
2023/06/02 04:41:37;;;;;;;17.13;3.28;;;;;;;11.43;77.24;102254.13;5021449;28;19913;-75
2023/06/02 04:44:04;;;;;;;20.83;3.58;;;;;;;11.36;77.48;102253.09;5027048;28;20034;-75
2023/06/02 04:46:30;;;;;;;21.77;4.22;;;;;;;11.50;77.23;102253.28;5017164;28;20580;-74
2023/06/02 04:48:56;;;;;;;18.40;2.90;;;;;;;11.40;78.00;102254.44;5024904;28;20029;-74
2023/06/02 04:51:29;;;;;;;16.77;3.03;;;;;;;11.35;77.61;102254.09;5019638;28;20432;-75
2023/06/02 04:53:54;;;;;;;16.45;3.50;;;;;;;11.30;78.12;102254.59;5022648;28;20477;-75
2023/06/02 04:56:20;;;;;;;17.10;3.37;;;;;;;11.42;77.50;102244.16;5018222;28;20036;-74
2023/06/02 04:58:46;;;;;;;20.73;3.13;;;;;;;11.45;77.62;102252.06;5017602;28;20029;-75
2023/06/02 05:01:11;;;;;;;12.87;3.20;;;;;;;11.46;77.76;102256.50;5018012;28;20084;-74
2023/06/02 05:03:36;;;;;;;19.88;3.50;;;;;;;11.38;77.92;102248.28;5016690;28;20087;-75
2023/06/02 05:06:02;;;;;;;11.35;3.13;;;;;;;11.47;77.34;102252.75;5019504;28;20107;-75
2023/06/02 05:08:28;;;;;;;20.90;3.73;;;;;;;11.52;77.30;102261.34;5013369;28;20036;-75
2023/06/02 05:10:53;;;;;;;14.15;3.30;;;;;;;11.46;76.58;102254.63;5020249;28;20045;-74
2023/06/02 05:13:19;;;;;;;21.77;3.27;;;;;;;11.48;76.69;102259.97;5011984;28;20053;-75
2023/06/02 05:15:45;;;;;;;33.30;4.07;;;;;;;11.47;76.38;102252.75;5022990;28;20044;-75
2023/06/02 05:18:11;;;;;;;18.77;2.87;;;;;;;11.41;75.77;102257.03;5018990;28;20057;-74
2023/06/02 05:20:36;;;;;;;10.37;2.70;;;;;;;11.49;75.71;102257.06;5020697;28;20045;-74
2023/06/02 05:23:01;;;;;;;20.10;3.37;;;;;;;11.57;75.58;102267.16;5013453;28;20343;-75
2023/06/02 05:25:27;;;;;;;25.10;4.67;;;;;;;11.57;75.52;102262.53;5019211;28;20048;-75
2023/06/02 05:27:52;;;;;;;16.83;3.27;;;;;;;11.60;75.47;102262.25;5026081;28;20051;-75
2023/06/02 05:30:18;;;;;;;14.20;3.70;;;;;;;11.64;75.14;102257.28;5016410;28;20109;-74
2023/06/02 05:32:44;;;;;;;21.13;4.10;;;;;;;11.59;74.88;102260.50;5017018;28;20026;-75
2023/06/02 05:35:09;;;;;;;17.33;3.30;;;;;;;11.62;75.44;102267.53;5016306;28;20032;-74
2023/06/02 05:37:35;;;;;;;12.60;2.83;;;;;;;11.66;74.78;102266.19;5022681;28;20034;-74
2023/06/02 05:40:00;;;;;;;16.83;3.60;;;;;;;11.63;74.74;102259.16;5018062;28;20032;-74
2023/06/02 05:42:26;;;;;;;20.73;3.22;;;;;;;11.55;75.04;102258.25;5017988;28;20033;-75
2023/06/02 05:44:52;;;;;;;16.43;3.87;;;;;;;11.55;75.57;102264.59;5021953;28;20028;-74
2023/06/02 05:47:17;;;;;;;15.60;3.60;;;;;;;11.62;75.71;102265.66;5019612;28;20021;-74
2023/06/02 05:49:42;;;;;;;18.67;3.42;;;;;;;11.63;75.18;102269.28;5014335;28;20021;-74
2023/06/02 05:52:08;;;;;;;12.93;3.20;;;;;;;11.62;76.02;102265.66;5018485;28;20076;-75
2023/06/02 05:54:33;;;;;;;18.83;3.97;;;;;;;11.77;75.15;102274.97;5019177;28;20113;-74
2023/06/02 05:56:59;;;;;;;17.13;3.90;;;;;;;11.78;75.17;102271.19;5016602;28;20034;-75
2023/06/02 05:59:24;;;;;;;22.20;3.90;;;;;;;11.80;74.93;102262.78;5015520;28;20037;-73
2023/06/02 06:01:51;;;;;;;18.53;3.40;;;;;;;11.80;74.68;102273.75;5011886;28;20029;-72
2023/06/02 06:04:16;;;;;;;21.55;3.65;;;;;;;11.94;74.97;102265.69;5013605;28;20083;-73
2023/06/02 06:06:42;;;;;;;16.42;3.53;;;;;;;11.94;74.69;102262.06;5016908;28;20108;-73
2023/06/02 06:09:07;;;;;;;15.20;3.80;;;;;;;11.98;74.98;102266.19;5016906;28;20480;-73
2023/06/02 06:11:33;;;;;;;19.37;3.43;;;;;;;11.95;73.95;102274.81;5017077;28;20022;-73
2023/06/02 06:14:00;;;;;;;23.27;3.50;;;;;;;11.85;74.50;102271.34;5015165;28;20410;-74
2023/06/02 06:16:26;;;;;;;18.10;3.33;;;;;;;11.97;74.42;102265.38;5017571;28;20041;-74
2023/06/02 06:18:52;;;;;;;18.48;4.28;;;;;;;12.08;74.21;102265.00;5019472;28;20402;-73
2023/06/02 06:21:17;;;;;;;22.90;3.17;;;;;;;12.18;73.69;102271.16;5017894;28;20037;-72
2023/06/02 06:23:43;;;;;;;22.20;2.93;;;;;;;12.17;73.44;102274.94;5019548;28;20034;-74
2023/06/02 06:26:08;;;;;;;17.63;3.70;;;;;;;12.20;73.32;102265.50;5022870;28;20603;-73
2023/06/02 06:28:34;;;;;;;20.98;3.17;;;;;;;12.25;73.18;102268.59;5019383;28;20370;-72
2023/06/02 06:31:02;;;;;;;27.85;4.90;;;;;;;12.27;73.84;102269.28;5013190;28;20049;-72
2023/06/02 06:33:29;;;;;;;16.42;2.92;;;;;;;12.16;73.58;102267.75;5018033;28;20029;-73
2023/06/02 06:35:54;;;;;;;20.17;3.10;;;;;;;12.17;73.82;102276.84;5018198;28;20056;-73
2023/06/02 06:38:20;;;;;;;17.13;4.07;;;;;;;12.22;73.82;102274.44;5015334;28;20049;-73
2023/06/02 06:40:45;;;;;;;21.27;3.20;;;;;;;12.19;74.00;102267.41;5021226;28;20091;-73
2023/06/02 06:43:10;;;;;;;13.47;3.50;;;;;;;12.21;73.81;102273.56;5016382;28;20323;-72
2023/06/02 06:45:36;;;;;;;21.43;3.57;;;;;;;12.11;73.21;102272.06;5017461;28;20417;-73
2023/06/02 06:48:04;;;;;;;18.30;3.37;;;;;;;12.24;73.88;102272.38;5011872;28;20575;-72
2023/06/02 06:50:30;;;;;;;22.00;3.50;;;;;;;12.33;73.59;102271.34;5016603;28;20365;-73
2023/06/02 06:52:55;;;;;;;22.47;4.67;;;;;;;12.44;73.30;102277.31;5022760;28;20124;-73
2023/06/02 06:55:20;;;;;;;13.60;3.30;;;;;;;12.26;73.17;102271.16;5015935;28;20026;-73
2023/06/02 06:57:46;;;;;;;15.93;3.00;;;;;;;12.30;72.61;102274.44;5020824;28;20033;-73
2023/06/02 07:00:13;;;;;;;25.57;3.50;;;;;;;12.30;72.93;102266.19;5022044;28;20396;-74
2023/06/02 07:02:38;;;;;;;;;;;;;;;12.47;73.43;102262.38;5020893;28;20095;-74
2023/06/02 07:05:04;;;;;;;13.80;2.70;;;;;;;12.54;73.58;102271.66;5021899;28;19912;-73
2023/06/02 07:07:30;;;;;;;25.43;3.30;;;;;;;12.59;72.90;102267.31;5018437;28;20488;-73
2023/06/02 07:09:55;;;;;;;12.90;2.73;;;;;;;12.70;73.27;102272.44;5021686;28;20040;-73
2023/06/02 07:12:21;;;;;;;14.23;3.73;;;;;;;12.67;71.91;102271.94;5021937;28;20085;-73
2023/06/02 07:14:46;;;;;;;17.90;2.87;;;;;;;12.68;71.58;102280.03;5019804;28;20038;-73
2023/06/02 07:17:12;;;;;;;15.93;2.97;;;;;;;12.65;71.77;102277.63;5022534;28;20030;-73
2023/06/02 07:19:37;;;;;;;15.77;3.00;;;;;;;12.57;71.97;102282.28;5021469;28;20528;-73
2023/06/02 07:22:03;;;;;;;23.00;4.10;;;;;;;12.59;71.62;102285.72;5023609;28;20564;-74
2023/06/02 07:24:28;;;;;;;12.93;3.10;;;;;;;12.54;71.90;102277.16;5019582;28;20101;-73
2023/06/02 07:26:55;;;;;;;14.60;3.67;;;;;;;12.65;71.69;102276.78;5024873;28;20023;-73
2023/06/02 07:29:20;;;;;;;20.98;4.30;;;;;;;12.80;71.68;102275.00;5019243;28;20435;-73
2023/06/02 07:31:46;;;;;;;19.03;3.57;;;;;;;12.96;70.74;102281.34;5022739;28;20033;-73
2023/06/02 07:34:11;;;;;;;17.87;3.97;;;;;;;13.09;70.17;102278.03;5019621;28;20313;-73
2023/06/02 07:36:38;;;;;;;21.03;3.37;;;;;;;13.16;70.32;102276.25;5022409;28;20436;-73
2023/06/02 07:39:03;;;;;;;19.67;3.25;;;;;;;13.10;69.88;102280.59;5022866;28;20065;-73
2023/06/02 07:41:29;;;;;;;18.90;3.77;;;;;;;13.30;69.68;102270.84;5021836;28;20447;-74
2023/06/02 07:43:54;;;;;;;20.43;3.13;;;;;;;13.38;69.17;102275.44;5020070;28;20525;-74
2023/06/02 07:46:20;;;;;;;15.50;3.63;;;;;;;13.51;69.13;102275.72;5021327;28;20477;-74
2023/06/02 07:48:46;;;;;;;14.27;3.13;;;;;;;13.75;69.20;102278.31;5017446;28;20025;-73
2023/06/02 07:51:11;;;;;;;16.40;3.73;;;;;;;13.73;68.62;102278.53;5016912;28;20029;-74
2023/06/02 07:53:37;;;;;;;12.67;3.13;;;;;;;13.91;68.21;102272.69;5017611;28;20021;-73
2023/06/02 07:56:02;;;;;;;18.20;3.23;;;;;;;13.74;68.11;102273.84;5014911;28;20030;-74
2023/06/02 07:58:28;;;;;;;17.60;3.60;;;;;;;13.84;67.76;102277.22;5021568;28;20431;-73
2023/06/02 08:00:53;;;;;;;23.73;3.80;;;;;;;13.99;67.88;102275.38;5016262;28;20030;-72
2023/06/02 08:03:19;;;;;;;14.23;3.50;;;;;;;14.00;66.85;102274.34;5021382;28;20022;-72
2023/06/02 08:05:45;;;;;;;12.27;2.83;;;;;;;13.98;65.72;102269.00;5018024;28;20018;-71
2023/06/02 08:08:11;;;;;;;19.52;3.05;;;;;;;14.00;66.60;102274.34;5022400;28;20030;-71
2023/06/02 08:10:36;;;;;;;20.73;4.97;;;;;;;14.10;67.15;102272.19;5013551;28;20119;-72
2023/06/02 08:13:02;;;;;;;22.00;3.37;;;;;;;13.75;67.10;102281.06;5015801;28;20192;-72
2023/06/02 08:15:27;;;;;;;12.27;3.10;;;;;;;13.87;68.29;102282.38;5016336;28;20408;-72
2023/06/02 08:17:52;;;;;;;21.60;4.33;;;;;;;13.88;68.23;102279.41;5019091;28;20037;-72
2023/06/02 08:20:18;;;;;;;14.50;4.10;;;;;;;13.83;68.20;102281.88;5023284;28;20032;-73
2023/06/02 08:22:47;;;;;;;18.00;3.43;;;;;;;13.73;68.65;102277.66;5017834;28;20084;-72
2023/06/02 08:25:12;;;;;;;21.80;3.97;;;;;;;13.84;68.00;102282.72;5020515;28;20026;-73
2023/06/02 08:27:38;;;;;;;16.33;3.57;;;;;;;14.07;67.61;102278.06;5019772;28;20029;-72
2023/06/02 08:30:05;;;;;;;16.13;3.40;;;;;;;14.06;66.70;102276.34;5022773;28;20036;-72
2023/06/02 08:32:31;;;;;;;18.13;3.30;;;;;;;14.23;66.42;102270.56;5018219;28;20034;-72
2023/06/02 08:35:01;;;;;;;17.13;3.60;;;;;;;14.42;66.68;102277.44;5018262;28;20456;-72
2023/06/02 08:37:29;;;;;;;22.38;4.20;;;;;;;14.15;66.28;102276.09;5016512;28;20041;-72
2023/06/02 08:39:55;;;;;;;20.67;3.97;;;;;;;14.41;66.57;102273.81;5018578;28;20026;-72
2023/06/02 08:42:22;;;;;;;23.05;4.57;;;;;;;14.87;64.25;102272.63;5015030;28;20116;-73
2023/06/02 08:44:48;;;;;;;;;;;;;;;15.06;63.55;102271.19;5016377;28;20025;-73
2023/06/02 08:47:14;;;;;;;16.95;3.85;;;;;;;15.20;62.43;102267.56;5017616;28;19909;-73
2023/06/02 08:49:42;;;;;;;19.90;4.57;;;;;;;14.98;62.24;102271.28;5019601;28;20365;-73
2023/06/02 08:52:19;;;;;;;15.40;3.45;;;;;;;14.93;63.00;102265.47;5021698;28;20318;-73
2023/06/02 08:54:46;;;;;;;20.85;3.88;;;;;;;14.90;63.13;102271.38;5033983;28;20385;-73
2023/06/02 08:57:16;;;;;;;14.18;3.22;;;;;;;15.13;63.73;102266.59;5022412;28;20408;-73
2023/06/02 08:59:43;;;;;;;16.40;3.30;;;;;;;14.96;62.94;102265.09;5015174;28;20037;-73
2023/06/02 09:02:09;;;;;;;16.80;3.58;;;;;;;15.18;62.95;102258.59;5015890;28;20405;-73
2023/06/02 09:04:35;;;;;;;15.80;3.45;;;;;;;15.38;62.58;102262.50;5018610;28;20060;-73
2023/06/02 09:07:12;;;;;;;19.67;3.77;;;;;;;15.20;63.08;102267.56;5018807;28;20491;-73
2023/06/02 09:09:47;;;;;;;12.55;3.72;;;;;;;15.49;62.92;102262.00;5011402;28;20037;-73
2023/06/02 09:12:14;;;;;;;10.43;3.28;;;;;;;15.47;62.26;102264.94;5014119;28;20659;-73
2023/06/02 09:14:39;;;;;;;18.75;3.78;;;;;;;15.36;62.01;102279.25;5011275;28;20095;-73
2023/06/02 09:17:24;;;;;;;19.80;3.97;;;;;;;15.44;63.45;102267.25;5017224;28;20067;-73
2023/06/02 09:19:51;;;;;;;19.10;3.80;;;;;;;15.34;63.88;102270.34;5019520;28;20549;-73
2023/06/02 09:22:16;;;;;;;15.27;3.17;;;;;;;15.45;63.42;102271.72;5024657;28;20040;-73
2023/06/02 09:24:42;;;;;;;17.67;3.10;;;;;;;15.73;64.05;102283.72;5016517;28;20468;-73
2023/06/02 09:27:15;;;;;;;22.90;4.10;;;;;;;15.39;62.96;102267.84;5017684;28;20036;-72
2023/06/02 09:29:42;;;;;;;13.93;3.17;;;;;;;15.50;63.35;102275.63;5012804;28;20029;-74
2023/06/02 09:32:15;;;;;;;20.15;3.50;;;;;;;15.38;64.20;102276.31;5015768;28;20030;-72
2023/06/02 09:34:41;;;;;;;18.73;3.95;;;;;;;15.16;64.44;102272.59;5013395;28;20485;-73
2023/06/02 09:37:10;;;;;;;16.15;3.35;;;;;;;15.04;65.66;102273.31;5019424;28;20362;-73
2023/06/02 09:39:38;;;;;;;22.70;3.80;;;;;;;14.74;65.90;102271.59;5016952;28;20026;-73
2023/06/02 09:42:06;;;;;;;16.08;3.80;;;;;;;14.95;65.60;102271.69;5035476;28;20037;-73
2023/06/02 09:44:31;;;;;;;21.90;3.97;;;;;;;15.05;65.60;102270.31;5019672;28;20191;-73
2023/06/02 09:46:57;;;;;;;19.20;3.10;;;;;;;15.39;65.91;102273.38;5013610;28;20041;-73
2023/06/02 09:49:22;;;;;;;14.57;3.57;;;;;;;15.16;65.73;102272.59;5015358;28;20040;-74
2023/06/02 09:51:48;;;;;;;24.97;4.27;;;;;;;15.05;65.60;102272.25;5019048;28;20030;-73
2023/06/02 09:54:13;;;;;;;15.17;3.60;;;;;;;15.33;66.33;102270.53;5013362;28;20066;-73
2023/06/02 09:56:40;;;;;;;18.53;3.50;;;;;;;15.35;66.16;102273.94;5018553;28;20037;-73
2023/06/02 09:59:06;;;;;;;21.95;4.38;;;;;;;15.57;65.65;102270.16;5015277;28;20041;-73
2023/06/02 10:01:36;;;;;;;25.13;4.88;;;;;;;15.67;65.18;102273.47;5014589;28;20041;-73
2023/06/02 10:04:04;;;;;;;17.60;3.85;;;;;;;15.59;65.17;102257.03;5013615;28;20388;-73
2023/06/02 10:07:06;;;;;;;24.20;4.10;;;;;;;15.72;64.21;102265.44;5019733;28;20075;-74
2023/06/02 10:09:49;;;;;;;17.38;3.60;;;;;;;16.11;64.53;102268.63;5020358;28;20037;-73
2023/06/02 10:12:21;;;;;;;14.70;3.33;;;;;;;16.21;62.69;102258.06;5016690;28;20416;-73
2023/06/02 10:15:06;;;;;;;16.00;4.63;;;;;;;16.06;62.23;102265.59;5010864;28;20041;-73
2023/06/02 10:18:10;;;;;;;18.77;4.38;;;;;;;16.34;62.68;102260.94;5013247;28;20298;-73
2023/06/02 10:20:53;;;;;;;19.73;4.10;;;;;;;16.18;62.87;102259.31;5019429;28;20438;-73
2023/06/02 10:23:24;;;;;;;14.65;3.65;;;;;;;16.33;62.11;102271.16;5014155;28;20493;-73
2023/06/02 10:26:08;;;;;;;15.63;4.50;;;;;;;16.54;61.72;102262.00;5015358;28;20026;-73
2023/06/02 10:28:34;;;;;;;16.55;3.28;;;;;;;16.37;61.42;102261.41;5015556;28;20030;-73
2023/06/02 10:31:08;;;;;;;19.88;4.15;;;;;;;16.65;61.88;102256.75;5017948;28;20116;-73
2023/06/02 10:33:47;;;;;;;19.40;4.03;;;;;;;16.80;62.17;102264.94;5017444;28;20468;-73
2023/06/02 10:36:13;;;;;;;13.27;3.92;;;;;;;16.59;62.40;102260.31;5018193;28;20040;-73
2023/06/02 10:38:39;;;;;;;14.18;3.30;;;;;;;16.94;61.65;102272.25;5021275;28;20112;-73
2023/06/02 10:41:05;;;;;;;14.63;3.80;;;;;;;16.61;61.10;102272.06;5024525;28;20168;-74
2023/06/02 10:43:33;;;;;;;13.63;3.70;;;;;;;16.61;62.18;102271.19;5016705;28;20128;-73
2023/06/02 10:46:21;;;;;;;20.35;4.00;;;;;;;16.79;63.04;102263.22;5018999;28;20116;-73
2023/06/02 10:48:47;;;;;;;16.58;4.28;;;;;;;16.59;63.23;102271.38;5018005;28;20556;-73
2023/06/02 10:51:12;;;;;;;22.67;3.53;;;;;;;17.07;62.40;102258.50;5016121;28;20029;-73
2023/06/02 10:54:07;;;;;;;17.50;3.50;;;;;;;17.04;61.96;102272.75;5018542;28;20440;-74
2023/06/02 10:56:36;;;;;;;21.67;3.38;;;;;;;16.69;62.09;102266.34;5016333;28;20108;-74
2023/06/02 10:59:02;;;;;;;20.02;4.57;;;;;;;16.81;63.48;102266.66;5015153;28;20091;-74
2023/06/02 11:01:51;;;;;;;16.40;3.72;;;;;;;16.88;61.67;102270.31;5017354;28;20038;-73
2023/06/02 11:04:33;;;;;;;16.17;3.03;;;;;;;16.61;62.17;102271.19;5012919;28;20411;-74
2023/06/02 11:07:26;;;;;;;21.15;4.40;;;;;;;16.71;63.16;102260.63;5023577;28;20560;-74
2023/06/02 11:10:00;;;;;;;17.50;3.70;;;;;;;16.73;63.09;102264.03;5016359;28;20033;-73
2023/06/02 11:12:50;;;;;;;20.23;4.38;;;;;;;16.74;62.76;102261.06;5020573;28;20025;-73
2023/06/02 11:15:16;;;;;;;17.00;4.50;;;;;;;16.61;63.61;102254.59;5017222;28;20037;-73
2023/06/02 11:17:43;;;;;;;21.98;4.95;;;;;;;17.23;63.61;102258.16;5020011;28;20026;-73
2023/06/02 11:20:08;;;;;;;17.92;4.95;;;;;;;17.11;62.53;102257.88;5016242;28;20038;-73